createdAt,value
2024-01-03T00:01:40.277Z,67.84
2024-01-03T00:04:09.319Z,68.91
2024-01-03T00:06:36.536Z,67.89
2024-01-03T00:09:04.770Z,67.88
2024-01-03T00:11:34.081Z,67.90
2024-01-03T00:14:06.732Z,68.15
2024-01-03T00:16:38.403Z,68.46
2024-01-03T00:19:06.726Z,68.51
2024-01-03T00:21:34.850Z,69.04
2024-01-03T00:24:05.613Z,68.02
2024-01-03T00:26:36.779Z,68.85
2024-01-03T00:29:23.502Z,68.73
2024-01-03T00:31:51.104Z,68.48
2024-01-03T00:34:42.902Z,67.76
2024-01-03T00:37:30.732Z,68.76
2024-01-03T00:39:59.396Z,67.88
2024-01-03T00:42:26.940Z,67.88
2024-01-03T00:44:54.457Z,67.96
2024-01-03T00:47:23.604Z,68.16
2024-01-03T00:49:51.667Z,67.94
2024-01-03T00:52:19.713Z,68.06
2024-01-03T00:54:47.520Z,67.83
2024-01-03T00:57:15.582Z,68.66
2024-01-03T00:59:45.455Z,68.04
2024-01-03T01:02:13.451Z,68.40
2024-01-03T01:04:42.269Z,67.78
2024-01-03T01:07:09.644Z,67.72
2024-01-03T01:09:37.311Z,67.99
2024-01-03T01:12:05.286Z,67.82
2024-01-03T01:14:32.533Z,68.84
2024-01-03T01:16:59.771Z,67.80
2024-01-03T01:19:26.912Z,68.39
2024-01-03T01:21:54.496Z,67.73
2024-01-03T01:24:21.755Z,68.15
2024-01-03T01:26:49.154Z,68.04
2024-01-03T01:29:16.241Z,68.44
2024-01-03T01:31:43.258Z,69.03
2024-01-03T01:34:10.456Z,68.94
2024-01-03T01:36:37.753Z,68.14
2024-01-03T01:39:05.569Z,68.18
2024-01-03T01:41:32.691Z,68.88
2024-01-03T01:44:00.007Z,68.45
2024-01-03T01:46:28.327Z,67.90
2024-01-03T01:48:56.023Z,68.94
2024-01-03T01:51:23.634Z,68.73
2024-01-03T01:53:51.486Z,69.00
2024-01-03T01:56:20.662Z,68.11
2024-01-03T01:58:50.470Z,68.75
2024-01-03T02:01:19.225Z,69.16
2024-01-03T02:03:49.213Z,68.96
2024-01-03T02:06:20.806Z,68.65
2024-01-03T02:08:47.994Z,68.90
2024-01-03T02:11:15.688Z,69.20
2024-01-03T02:13:45.733Z,68.09
2024-01-03T02:16:15.918Z,68.40
2024-01-03T02:18:45.359Z,68.07
2024-01-03T02:21:32.841Z,68.29
2024-01-03T02:23:59.872Z,69.02
2024-01-03T02:26:30.291Z,68.21
2024-01-03T02:28:58.640Z,69.01
2024-01-03T02:31:25.717Z,68.41
2024-01-03T02:33:52.955Z,68.68
2024-01-03T02:36:20.617Z,68.46
2024-01-03T02:38:52.117Z,68.06
2024-01-03T02:41:19.541Z,68.08
2024-01-03T02:43:46.779Z,67.92
2024-01-03T02:46:13.861Z,68.46
2024-01-03T02:48:41.685Z,68.26
2024-01-03T02:51:17.597Z,68.67
2024-01-03T02:53:44.728Z,68.29
2024-01-03T02:56:11.981Z,68.90
2024-01-03T02:58:39.226Z,68.36
2024-01-03T03:01:06.544Z,67.98
2024-01-03T03:03:33.853Z,68.83
2024-01-03T03:06:01.642Z,68.63
2024-01-03T03:08:28.840Z,68.04
2024-01-03T03:10:56.051Z,67.99
2024-01-03T03:13:24.612Z,68.01
2024-01-03T03:15:51.974Z,68.55
2024-01-03T03:18:19.380Z,68.59
2024-01-03T03:20:46.560Z,68.41
2024-01-03T03:23:13.756Z,67.87
2024-01-03T03:25:40.854Z,68.51
2024-01-03T03:28:10.344Z,68.47
2024-01-03T03:30:37.826Z,68.00
2024-01-03T03:33:05.254Z,68.22
2024-01-03T03:35:32.430Z,67.55
2024-01-03T03:37:59.418Z,67.72
2024-01-03T03:40:26.557Z,68.29
2024-01-03T03:42:53.922Z,67.91
2024-01-03T03:45:21.438Z,67.67
2024-01-03T03:47:48.670Z,68.46
2024-01-03T03:50:15.887Z,68.31
2024-01-03T03:52:43.041Z,68.64
2024-01-03T03:55:10.033Z,67.97
2024-01-03T03:57:37.168Z,68.30
2024-01-03T04:00:04.973Z,68.25
2024-01-03T04:02:39.993Z,68.42
2024-01-03T04:05:07.861Z,67.74
2024-01-03T04:07:35.239Z,67.68
2024-01-03T04:10:02.234Z,68.12
2024-01-03T04:12:32.520Z,67.77
2024-01-03T04:14:59.931Z,67.94
2024-01-03T04:17:27.302Z,67.77
2024-01-03T04:19:54.488Z,67.52
2024-01-03T04:22:21.543Z,67.30
2024-01-03T04:24:48.772Z,67.74
2024-01-03T04:27:15.863Z,67.67
2024-01-03T04:29:42.878Z,67.60
2024-01-03T04:32:09.969Z,67.47
2024-01-03T04:34:40.317Z,67.40
2024-01-03T04:37:07.446Z,67.78
2024-01-03T04:39:34.437Z,67.56
2024-01-03T04:42:01.560Z,67.85
2024-01-03T04:44:28.709Z,67.94
2024-01-03T04:46:55.708Z,67.39
2024-01-03T04:49:23.149Z,67.66
2024-01-03T04:51:50.223Z,67.65
2024-01-03T04:54:17.397Z,67.71
2024-01-03T04:56:44.500Z,67.41
2024-01-03T04:59:11.855Z,67.78
2024-01-03T05:01:39.704Z,67.65
2024-01-03T05:04:06.823Z,67.17
2024-01-03T05:06:34.661Z,67.62
2024-01-03T05:09:02.079Z,67.38
2024-01-03T05:11:30.381Z,67.18
2024-01-03T05:13:57.592Z,67.61
2024-01-03T05:16:24.805Z,67.50
2024-01-03T05:18:52.020Z,67.45
2024-01-03T05:21:19.344Z,67.65
2024-01-03T05:23:46.433Z,67.56
2024-01-03T05:26:15.062Z,67.67
2024-01-03T05:28:42.243Z,67.61
2024-01-03T05:31:09.306Z,67.73
2024-01-03T05:33:36.994Z,68.04
2024-01-03T05:36:05.511Z,67.74
2024-01-03T05:38:35.991Z,67.78
2024-01-03T05:41:05.173Z,67.86
2024-01-03T05:43:33.773Z,67.67
2024-01-03T05:46:00.905Z,68.10
2024-01-03T05:48:28.301Z,68.02
2024-01-03T05:50:55.687Z,67.67
2024-01-03T05:53:22.966Z,67.88
2024-01-03T05:55:50.145Z,68.04
2024-01-03T05:58:18.507Z,68.15
2024-01-03T06:00:45.621Z,67.82
2024-01-03T06:03:12.805Z,68.34
2024-01-03T06:05:39.918Z,68.15
2024-01-03T06:08:07.495Z,68.15
2024-01-03T06:10:34.954Z,67.64
2024-01-03T06:13:02.148Z,67.80
2024-01-03T06:15:29.301Z,67.88
2024-01-03T06:17:56.662Z,68.17
2024-01-03T06:20:24.656Z,67.77
2024-01-03T06:22:52.204Z,68.21
2024-01-03T06:25:19.217Z,68.24
2024-01-03T06:27:47.358Z,67.89
2024-01-03T06:30:15.184Z,67.73
2024-01-03T06:32:42.465Z,67.89
2024-01-03T06:35:12.681Z,68.05
2024-01-03T06:37:44.510Z,68.00
2024-01-03T06:40:11.868Z,67.71
2024-01-03T06:42:38.931Z,68.13
2024-01-03T06:45:06.751Z,68.15
2024-01-03T06:47:34.527Z,67.77
2024-01-03T06:50:01.738Z,67.78
2024-01-03T06:52:29.352Z,67.44
2024-01-03T06:54:58.460Z,68.14
2024-01-03T06:57:25.563Z,68.15
2024-01-03T06:59:53.145Z,67.72
2024-01-03T07:02:21.901Z,67.76
2024-01-03T07:04:49.202Z,67.54
2024-01-03T07:07:18.242Z,68.08
2024-01-03T07:09:46.912Z,68.71
2024-01-03T07:12:15.135Z,68.54
2024-01-03T07:14:42.321Z,68.05
2024-01-03T07:17:09.527Z,68.35
2024-01-03T07:19:36.662Z,67.67
2024-01-03T07:22:03.726Z,67.90
2024-01-03T07:24:30.743Z,68.63
2024-01-03T07:26:57.792Z,68.57
2024-01-03T07:29:25.494Z,67.78
2024-01-03T07:31:52.540Z,68.35
2024-01-03T07:34:19.942Z,67.38
2024-01-03T07:36:47.121Z,67.13
2024-01-03T07:39:16.972Z,67.44
2024-01-03T07:41:44.736Z,67.17
2024-01-03T07:44:13.223Z,67.48
2024-01-03T07:46:41.058Z,67.59
2024-01-03T07:49:08.725Z,67.56
2024-01-03T07:51:40.416Z,68.10
2024-01-03T07:54:11.081Z,67.36
2024-01-03T07:56:39.540Z,67.50
2024-01-03T07:59:06.662Z,67.78
2024-01-03T08:01:34.405Z,68.22
2024-01-03T08:04:27.104Z,67.38
2024-01-03T08:06:54.223Z,67.46
2024-01-03T08:09:21.376Z,67.55
2024-01-03T08:11:48.446Z,67.40
2024-01-03T08:14:15.983Z,67.46
2024-01-03T08:16:43.079Z,68.07
2024-01-03T08:19:10.574Z,67.44
2024-01-03T08:21:37.732Z,67.62
2024-01-03T08:24:05.314Z,68.20
2024-01-03T08:26:33.470Z,67.88
2024-01-03T08:29:00.768Z,68.19
2024-01-03T08:31:27.770Z,67.76
2024-01-03T08:33:55.012Z,68.03
2024-01-03T08:36:23.330Z,66.80
2024-01-03T08:38:50.492Z,67.42
2024-01-03T08:41:19.445Z,68.04
2024-01-03T08:43:47.541Z,67.69
2024-01-03T08:46:14.689Z,67.69
2024-01-03T08:48:43.591Z,67.95
2024-01-03T08:51:15.898Z,66.98
2024-01-03T08:53:43.396Z,66.98
2024-01-03T08:56:14.854Z,67.91
2024-01-03T08:58:43.256Z,67.73
2024-01-03T09:01:15.948Z,67.05
2024-01-03T09:03:43.192Z,67.45
2024-01-03T09:06:10.398Z,67.71
2024-01-03T09:08:37.522Z,67.83
2024-01-03T09:11:14.777Z,67.69
2024-01-03T09:13:41.838Z,67.71
2024-01-03T09:16:11.710Z,67.19
2024-01-03T09:18:39.549Z,66.61
2024-01-03T09:21:06.784Z,67.77
2024-01-03T09:23:33.918Z,66.89
2024-01-03T09:26:05.076Z,67.49
2024-01-03T09:28:35.464Z,67.64
2024-01-03T09:31:04.564Z,67.36
2024-01-03T09:33:32.217Z,67.61
2024-01-03T09:35:59.620Z,67.81
2024-01-03T09:38:27.608Z,66.64
2024-01-03T09:40:55.425Z,67.53
2024-01-03T09:43:23.405Z,67.37
2024-01-03T09:45:51.251Z,68.04
2024-01-03T09:48:18.938Z,68.23
2024-01-03T09:50:47.243Z,67.28
2024-01-03T09:53:16.299Z,67.54
2024-01-03T09:55:45.339Z,68.05
2024-01-03T09:58:12.795Z,67.41
2024-01-03T10:00:40.144Z,67.00
2024-01-03T10:03:12.159Z,66.63
2024-01-03T10:05:39.521Z,67.48
2024-01-03T10:08:17.436Z,67.32
2024-01-03T10:10:46.886Z,66.87
2024-01-03T10:13:19.384Z,67.49
2024-01-03T10:15:48.429Z,66.96
2024-01-03T10:18:26.862Z,67.47
2024-01-03T10:21:13.008Z,67.35
2024-01-03T10:23:40.233Z,66.64
2024-01-03T10:26:07.547Z,67.66
2024-01-03T10:28:35.257Z,68.04
2024-01-03T10:31:05.936Z,67.21
2024-01-03T10:33:35.023Z,67.34
2024-01-03T10:36:11.279Z,67.23
2024-01-03T10:38:41.412Z,67.54
2024-01-03T10:41:08.949Z,67.48
2024-01-03T10:43:37.308Z,67.48
2024-01-03T10:46:07.430Z,67.95
2024-01-03T10:48:34.847Z,67.45
2024-01-03T10:51:06.026Z,67.43
2024-01-03T10:53:37.778Z,67.17
2024-01-03T10:56:06.077Z,67.43
2024-01-03T10:58:33.511Z,66.62
2024-01-03T11:01:33.317Z,67.14
2024-01-03T11:04:31.987Z,66.58
2024-01-03T11:07:26.775Z,66.86
2024-01-03T11:09:54.140Z,66.53
2024-01-03T11:12:28.983Z,67.38
2024-01-03T11:15:16.600Z,67.33
2024-01-03T11:17:44.403Z,67.37
2024-01-03T11:20:13.624Z,67.25
2024-01-03T11:23:06.482Z,66.92
2024-01-03T11:25:48.792Z,66.26
2024-01-03T11:28:35.130Z,67.06
2024-01-03T11:31:03.212Z,66.11
2024-01-03T11:33:32.968Z,66.89
2024-01-03T11:36:00.802Z,67.11
2024-01-03T11:38:45.135Z,66.17
2024-01-03T11:41:17.252Z,66.79
2024-01-03T11:43:44.444Z,66.25
2024-01-03T11:46:13.031Z,66.59
2024-01-03T11:48:41.396Z,66.88
2024-01-03T11:51:27.401Z,66.92
2024-01-03T11:53:56.368Z,66.20
2024-01-03T11:56:33.509Z,67.33
2024-01-03T11:59:01.929Z,66.28
2024-01-03T12:01:29.029Z,65.97
2024-01-03T12:04:12.092Z,66.77
2024-01-03T12:06:40.724Z,66.38
2024-01-03T12:09:08.616Z,66.76
2024-01-03T12:11:36.756Z,67.19
2024-01-03T12:14:03.931Z,66.52
2024-01-03T12:16:31.979Z,66.30
2024-01-03T12:18:59.430Z,66.36
2024-01-03T12:21:26.580Z,66.55
2024-01-03T12:24:03.573Z,66.56
2024-01-03T12:26:30.843Z,66.28
2024-01-03T12:29:05.093Z,66.28
2024-01-03T12:31:32.373Z,66.64
2024-01-03T12:34:06.914Z,66.80
2024-01-03T12:36:34.943Z,66.91
2024-01-03T12:39:02.987Z,66.49
2024-01-03T12:41:30.394Z,66.41
2024-01-03T12:43:57.715Z,66.71
2024-01-03T12:46:24.899Z,66.76
2024-01-03T12:48:52.348Z,66.57
2024-01-03T12:51:27.197Z,66.84
2024-01-03T12:53:57.288Z,66.83
2024-01-03T12:56:24.618Z,66.67
2024-01-03T12:58:51.898Z,66.31
2024-01-03T13:01:19.064Z,66.71
2024-01-03T13:03:46.139Z,66.00
2024-01-03T13:06:13.282Z,66.33
2024-01-03T13:08:41.060Z,66.01
2024-01-03T13:11:08.264Z,66.16
2024-01-03T13:13:36.130Z,65.82
2024-01-03T13:16:03.357Z,66.28
2024-01-03T13:18:30.906Z,66.33
2024-01-03T13:20:58.129Z,66.59
2024-01-03T13:23:25.265Z,66.44
2024-01-03T13:25:52.429Z,65.97
2024-01-03T13:28:19.516Z,66.62
2024-01-03T13:30:47.255Z,66.26
2024-01-03T13:33:14.570Z,66.95
2024-01-03T13:35:42.792Z,67.29
2024-01-03T13:38:10.167Z,67.37
2024-01-03T13:40:37.393Z,66.57
2024-01-03T13:43:04.614Z,66.76
2024-01-03T13:45:31.931Z,66.09
2024-01-03T13:47:59.621Z,66.86
2024-01-03T13:50:28.252Z,66.44
2024-01-03T13:52:56.989Z,66.29
2024-01-03T13:55:24.408Z,66.98
2024-01-03T13:57:51.550Z,66.48
2024-01-03T14:00:20.613Z,66.12
2024-01-03T14:02:48.395Z,67.42
2024-01-03T14:05:17.966Z,66.67
2024-01-03T14:07:45.162Z,66.69
2024-01-03T14:10:12.624Z,67.43
2024-01-03T14:12:39.802Z,66.46
2024-01-03T14:15:10.854Z,66.90
2024-01-03T14:17:40.940Z,67.19
2024-01-03T14:20:13.693Z,67.34
2024-01-03T14:22:44.176Z,67.17
2024-01-03T14:25:11.925Z,66.91
2024-01-03T14:27:40.507Z,66.89
2024-01-03T14:30:13.601Z,67.13
2024-01-03T14:32:44.759Z,67.09
2024-01-03T14:35:12.139Z,66.90
2024-01-03T14:37:39.431Z,67.38
2024-01-03T14:40:12.884Z,66.88
2024-01-03T14:42:40.276Z,66.66
2024-01-03T14:45:07.884Z,67.56
2024-01-03T14:47:35.058Z,67.15
2024-01-03T14:50:02.320Z,67.74
2024-01-03T14:52:31.094Z,67.01
2024-01-03T14:54:58.511Z,66.61
2024-01-03T14:57:25.565Z,67.52
2024-01-03T14:59:53.314Z,67.20
2024-01-03T15:02:20.352Z,66.65
2024-01-03T15:04:47.822Z,66.84
2024-01-03T15:07:14.910Z,67.58
2024-01-03T15:09:42.232Z,67.03
2024-01-03T15:12:09.353Z,66.45
2024-01-03T15:14:38.108Z,67.85
2024-01-03T15:17:06.031Z,67.45
2024-01-03T15:19:33.462Z,67.89
2024-01-03T15:22:10.813Z,67.90
2024-01-03T15:24:39.484Z,67.33
2024-01-03T15:27:07.017Z,67.90
2024-01-03T15:29:35.628Z,67.95
2024-01-03T15:32:03.232Z,66.89
2024-01-03T15:34:30.845Z,67.96
2024-01-03T15:36:59.076Z,67.89
2024-01-03T15:39:26.460Z,67.15
2024-01-03T15:41:56.795Z,67.78
2024-01-03T15:44:24.553Z,67.45
2024-01-03T15:46:51.689Z,68.13
2024-01-03T15:49:22.283Z,67.03
2024-01-03T15:52:09.220Z,67.05
2024-01-03T15:54:46.451Z,67.00
2024-01-03T15:57:16.936Z,67.50
2024-01-03T15:59:45.962Z,67.09
2024-01-03T16:02:14.414Z,68.12
2024-01-03T16:04:43.402Z,67.50
2024-01-03T16:07:10.672Z,66.77
2024-01-03T16:09:38.829Z,67.23
2024-01-03T16:12:06.720Z,67.18
2024-01-03T16:14:36.911Z,67.74
2024-01-03T16:17:07.775Z,67.16
2024-01-03T16:19:35.302Z,67.43
2024-01-03T16:22:02.541Z,67.94
2024-01-03T16:24:29.758Z,66.53
2024-01-03T16:27:00.630Z,67.30
2024-01-03T16:29:27.819Z,67.61
2024-01-03T16:31:56.596Z,67.49
2024-01-03T16:34:28.896Z,67.03
2024-01-03T16:36:57.982Z,66.96
2024-01-03T16:39:26.562Z,67.49
2024-01-03T16:41:57.271Z,67.29
2024-01-03T16:44:24.885Z,67.00
2024-01-03T16:46:53.116Z,67.75
2024-01-03T16:49:21.000Z,68.12
2024-01-03T16:51:48.942Z,67.43
2024-01-03T16:54:16.932Z,67.26
2024-01-03T16:56:48.432Z,67.30
2024-01-03T16:59:16.898Z,67.67
2024-01-03T17:01:46.714Z,67.19
2024-01-03T17:04:14.952Z,67.36
2024-01-03T17:06:45.524Z,68.18
2024-01-03T17:09:15.001Z,67.00
2024-01-03T17:11:42.625Z,67.24
2024-01-03T17:14:09.888Z,67.19
2024-01-03T17:16:37.798Z,67.50
2024-01-03T17:19:05.922Z,67.31
2024-01-03T17:21:33.559Z,67.17
2024-01-03T17:24:01.571Z,67.72
2024-01-03T17:26:36.033Z,67.32
2024-01-03T17:29:05.457Z,67.06
2024-01-03T17:31:37.390Z,67.20
2024-01-03T17:34:06.170Z,67.80
2024-01-03T17:36:34.496Z,67.18
2024-01-03T17:39:01.945Z,67.92
2024-01-03T17:41:31.251Z,67.26
2024-01-03T17:43:59.571Z,68.01
2024-01-03T17:46:30.693Z,67.05
2024-01-03T17:48:59.107Z,68.16
2024-01-03T17:51:26.688Z,68.04
2024-01-03T17:53:57.618Z,67.37
2024-01-03T17:56:28.571Z,67.65
2024-01-03T17:59:01.379Z,68.27
2024-01-03T18:01:28.452Z,67.98
2024-01-03T18:03:55.641Z,68.11
2024-01-03T18:06:23.352Z,67.77
2024-01-03T18:08:50.587Z,67.70
2024-01-03T18:11:17.918Z,66.64
2024-01-03T18:13:46.096Z,67.00
2024-01-03T18:16:13.393Z,67.49
2024-01-03T18:18:41.050Z,67.33
2024-01-03T18:21:10.504Z,66.78
2024-01-03T18:23:38.544Z,68.12
2024-01-03T18:26:06.105Z,67.61
2024-01-03T18:28:33.462Z,67.43
2024-01-03T18:31:01.363Z,67.50
2024-01-03T18:33:28.927Z,68.25
2024-01-03T18:35:56.362Z,67.90
2024-01-03T18:38:23.443Z,67.71
2024-01-03T18:40:51.755Z,68.26
2024-01-03T18:43:20.245Z,68.26
2024-01-03T18:45:48.282Z,67.56
2024-01-03T18:48:16.573Z,67.53
2024-01-03T18:50:47.283Z,67.82
2024-01-03T18:53:17.265Z,67.39
2024-01-03T18:55:44.260Z,67.37
2024-01-03T18:58:11.746Z,67.21
2024-01-03T19:00:40.269Z,66.93
2024-01-03T19:03:08.082Z,66.95
2024-01-03T19:05:35.970Z,66.88
2024-01-03T19:08:03.758Z,66.93
2024-01-03T19:10:30.887Z,68.00
2024-01-03T19:12:58.278Z,67.81
2024-01-03T19:15:25.304Z,67.30
2024-01-03T19:17:52.477Z,67.38
2024-01-03T19:20:21.204Z,67.29
2024-01-03T19:22:48.502Z,67.35
2024-01-03T19:25:16.009Z,67.62
2024-01-03T19:27:43.073Z,67.08
2024-01-03T19:30:11.047Z,67.07
2024-01-03T19:32:38.642Z,67.11
2024-01-03T19:35:07.106Z,66.68
2024-01-03T19:37:35.709Z,67.73
2024-01-03T19:40:03.557Z,67.58
2024-01-03T19:42:32.513Z,66.49
2024-01-03T19:44:59.838Z,66.67
2024-01-03T19:47:27.468Z,67.27
2024-01-03T19:49:54.650Z,66.57
2024-01-03T19:52:21.883Z,66.80
2024-01-03T19:54:48.924Z,67.43
2024-01-03T19:57:19.179Z,67.55
2024-01-03T19:59:47.738Z,66.45
2024-01-03T20:02:15.555Z,67.41
2024-01-03T20:04:43.337Z,66.28
2024-01-03T20:07:11.179Z,66.47
2024-01-03T20:09:40.317Z,66.94
2024-01-03T20:12:08.576Z,67.23
2024-01-03T20:14:36.455Z,67.10
2024-01-03T20:17:04.130Z,66.75
2024-01-03T20:19:31.619Z,66.33
2024-01-03T20:21:58.765Z,66.68
2024-01-03T20:24:28.199Z,66.58
2024-01-03T20:26:56.563Z,65.93
2024-01-03T20:29:23.721Z,65.78
2024-01-03T20:31:54.272Z,66.49
2024-01-03T20:34:21.637Z,66.42
2024-01-03T20:36:49.032Z,66.61
2024-01-03T20:39:17.449Z,66.73
2024-01-03T20:41:47.400Z,66.66
2024-01-03T20:44:18.231Z,66.82
2024-01-03T20:46:50.204Z,66.25
2024-01-03T20:49:18.077Z,66.85
2024-01-03T20:51:46.998Z,66.21
2024-01-03T20:54:14.696Z,66.61
2024-01-03T20:56:47.137Z,66.17
2024-01-03T20:59:15.476Z,66.63
2024-01-03T21:01:47.290Z,66.82
2024-01-03T21:04:14.415Z,67.29
2024-01-03T21:06:41.919Z,66.49
2024-01-03T21:09:10.400Z,66.82
2024-01-03T21:11:38.031Z,67.01
2024-01-03T21:14:06.833Z,66.85
2024-01-03T21:16:35.088Z,67.11
2024-01-03T21:19:02.647Z,66.26
2024-01-03T21:21:31.825Z,66.07
2024-01-03T21:23:59.126Z,66.63
2024-01-03T21:26:26.439Z,66.66
2024-01-03T21:28:53.815Z,66.63
2024-01-03T21:31:24.892Z,65.89
2024-01-03T21:33:52.718Z,66.13
2024-01-03T21:36:19.949Z,65.66
2024-01-03T21:38:47.090Z,66.73
2024-01-03T21:41:14.778Z,66.09
2024-01-03T21:43:42.850Z,66.84
2024-01-03T21:46:10.600Z,66.35
2024-01-03T21:48:38.374Z,66.78
2024-01-03T21:51:05.934Z,66.29
2024-01-03T21:53:33.169Z,67.06
2024-01-03T21:56:03.661Z,66.31
2024-01-03T21:58:31.473Z,67.02
2024-01-03T22:00:58.661Z,66.48
2024-01-03T22:03:27.601Z,66.24
2024-01-03T22:05:55.119Z,66.19
2024-01-03T22:08:22.341Z,65.94
2024-01-03T22:10:49.828Z,66.07
2024-01-03T22:13:17.736Z,66.33
2024-01-03T22:15:44.875Z,66.16
2024-01-03T22:18:13.361Z,66.55
2024-01-03T22:20:40.537Z,66.59
2024-01-03T22:23:11.011Z,66.84
2024-01-03T22:25:38.232Z,66.65
2024-01-03T22:28:05.477Z,67.08
2024-01-03T22:30:32.829Z,67.08
2024-01-03T22:33:00.105Z,66.31
2024-01-03T22:35:27.157Z,67.32
2024-01-03T22:37:54.365Z,66.31
2024-01-03T22:40:21.500Z,66.41
2024-01-03T22:42:48.745Z,66.65
2024-01-03T22:45:16.015Z,66.93
2024-01-03T22:47:43.342Z,66.50
2024-01-03T22:50:10.716Z,66.43
2024-01-03T22:52:38.196Z,66.51
2024-01-03T22:55:05.560Z,65.76
2024-01-03T22:57:32.703Z,66.14
2024-01-03T23:00:00.420Z,65.33
2024-01-03T23:02:27.586Z,65.40
2024-01-03T23:04:54.693Z,65.71
2024-01-03T23:07:21.679Z,65.95
2024-01-03T23:09:49.384Z,65.63
2024-01-03T23:12:16.897Z,66.00
2024-01-03T23:14:44.024Z,65.96
2024-01-03T23:17:18.339Z,66.12
2024-01-03T23:19:48.655Z,66.20
2024-01-03T23:22:15.959Z,66.53
2024-01-03T23:24:43.616Z,66.60
2024-01-03T23:27:10.854Z,66.11
2024-01-03T23:29:37.925Z,66.37
2024-01-03T23:32:05.164Z,66.10
2024-01-03T23:34:32.423Z,66.29
2024-01-03T23:36:59.417Z,66.45
2024-01-03T23:39:28.486Z,66.48
2024-01-03T23:41:55.535Z,66.36
2024-01-03T23:44:22.853Z,66.78
2024-01-03T23:46:50.164Z,66.72
2024-01-03T23:49:17.481Z,66.69
2024-01-03T23:51:44.745Z,67.15
2024-01-03T23:54:11.926Z,66.74
2024-01-03T23:56:39.246Z,66.56
2024-01-03T23:59:06.416Z,66.74
